createdAt,value
2019-02-11T00:02:16.512Z,4.80
2019-02-11T00:04:59.499Z,4.90
2019-02-11T00:07:41.385Z,4.80
2019-02-11T00:10:23.743Z,4.80
2019-02-11T00:13:10.685Z,4.80
2019-02-11T00:15:49.597Z,4.70
2019-02-11T00:18:32.390Z,4.80
2019-02-11T00:21:14.174Z,4.70
2019-02-11T00:23:56.738Z,4.80
2019-02-11T00:26:38.879Z,4.70
2019-02-11T00:29:21.867Z,4.70
2019-02-11T00:32:04.323Z,4.60
2019-02-11T00:34:46.727Z,4.60
2019-02-11T00:37:28.822Z,4.60
2019-02-11T00:40:11.122Z,4.50
2019-02-11T00:42:53.036Z,4.50
2019-02-11T00:45:35.266Z,4.70
2019-02-11T00:48:17.592Z,4.60
2019-02-11T00:50:59.929Z,4.60
2019-02-11T00:53:43.812Z,4.60
2019-02-11T00:56:25.714Z,4.50
2019-02-11T00:59:07.795Z,4.50
2019-02-11T01:01:50.170Z,4.50
2019-02-11T01:04:32.099Z,4.50
2019-02-11T01:07:14.371Z,4.50
2019-02-11T01:09:56.923Z,4.50
2019-02-11T01:12:39.494Z,4.50
2019-02-11T01:15:22.178Z,4.50
2019-02-11T01:18:04.786Z,4.50
2019-02-11T01:20:47.091Z,4.50
2019-02-11T01:23:28.902Z,4.40
2019-02-11T01:26:11.498Z,4.40
2019-02-11T01:28:53.686Z,4.40
2019-02-11T01:31:36.245Z,4.40
2019-02-11T01:34:18.171Z,4.40
2019-02-11T01:37:00.242Z,4.40
2019-02-11T01:39:42.830Z,4.40
2019-02-11T01:42:25.318Z,4.40
2019-02-11T01:45:07.521Z,4.50
2019-02-11T01:47:49.668Z,4.50
2019-02-11T01:50:32.396Z,4.60
2019-02-11T01:53:14.778Z,4.50
2019-02-11T01:55:57.254Z,4.50
2019-02-11T01:58:39.689Z,4.50
2019-02-11T02:01:22.141Z,4.40
2019-02-11T02:04:04.344Z,4.50
2019-02-11T02:06:46.690Z,4.50
2019-02-11T02:09:29.434Z,4.50
2019-02-11T02:12:11.809Z,4.40
2019-02-11T02:14:53.800Z,4.50
2019-02-11T02:17:37.202Z,4.50
2019-02-11T02:20:19.769Z,4.50
2019-02-11T02:23:02.174Z,4.50
2019-02-11T02:25:43.962Z,4.50
2019-02-11T02:28:26.880Z,4.50
2019-02-11T02:31:09.031Z,4.50
2019-02-11T02:33:51.409Z,4.50
2019-02-11T02:36:33.915Z,4.50
2019-02-11T02:39:16.286Z,4.50
2019-02-11T02:41:58.461Z,4.50
2019-02-11T02:44:40.483Z,4.50
2019-02-11T02:47:23.068Z,4.50
2019-02-11T02:50:05.480Z,4.60
2019-02-11T02:52:48.959Z,4.50
2019-02-11T02:55:31.353Z,4.50
2019-02-11T02:58:13.190Z,4.60
2019-02-11T03:00:55.506Z,4.60
2019-02-11T03:03:37.766Z,4.60
2019-02-11T03:06:20.298Z,4.60
2019-02-11T03:09:02.618Z,4.60
2019-02-11T03:11:45.043Z,4.60
2019-02-11T03:14:27.335Z,4.60
2019-02-11T03:17:09.622Z,4.60
2019-02-11T03:19:51.405Z,4.60
2019-02-11T03:22:33.451Z,4.60
2019-02-11T03:25:15.472Z,4.60
2019-02-11T03:27:57.716Z,4.60
2019-02-11T03:30:39.988Z,4.60
2019-02-11T03:33:21.857Z,4.70
2019-02-11T03:36:04.170Z,4.70
2019-02-11T03:38:46.495Z,4.70
2019-02-11T03:41:28.779Z,4.70
2019-02-11T03:44:15.043Z,4.70
2019-02-11T03:46:54.859Z,4.70
2019-02-11T03:49:37.032Z,4.80
2019-02-11T03:52:19.514Z,4.70
2019-02-11T03:55:02.119Z,4.70
2019-02-11T03:57:43.947Z,4.70
2019-02-11T04:00:26.033Z,4.70
2019-02-11T04:03:08.409Z,4.70
2019-02-11T04:05:51.013Z,4.80
2019-02-11T04:08:33.313Z,4.80
2019-02-11T04:11:15.707Z,4.70
2019-02-11T04:13:57.885Z,4.70
2019-02-11T04:16:39.959Z,4.70
2019-02-11T04:19:22.409Z,4.60
2019-02-11T04:22:04.801Z,4.50
2019-02-11T04:24:46.819Z,4.50
2019-02-11T04:27:29.103Z,4.50
2019-02-11T04:30:10.810Z,4.50
2019-02-11T04:32:52.614Z,4.50
2019-02-11T04:35:34.384Z,4.50
2019-02-11T04:38:16.609Z,4.50
2019-02-11T04:40:58.661Z,4.50
2019-02-11T04:43:41.257Z,4.50
2019-02-11T04:46:23.514Z,4.60
2019-02-11T04:49:05.568Z,4.50
2019-02-11T04:51:48.143Z,4.50
2019-02-11T04:54:30.690Z,4.50
2019-02-11T04:57:13.253Z,4.50
2019-02-11T04:59:55.374Z,4.50
2019-02-11T05:02:37.173Z,4.40
2019-02-11T05:05:19.675Z,4.40
2019-02-11T05:08:01.815Z,4.30
2019-02-11T05:10:44.048Z,4.30
2019-02-11T05:13:25.982Z,4.20
2019-02-11T05:16:08.291Z,4.20
2019-02-11T05:18:52.244Z,4.10
2019-02-11T05:21:34.543Z,4.10
2019-02-11T05:24:17.220Z,4.00
2019-02-11T05:26:59.576Z,4.00
2019-02-11T05:29:42.157Z,4.00
2019-02-11T05:32:24.643Z,3.90
2019-02-11T05:35:06.633Z,3.90
2019-02-11T05:37:48.595Z,3.90
2019-02-11T05:40:30.685Z,3.80
2019-02-11T05:43:12.886Z,3.70
2019-02-11T05:45:55.526Z,3.70
2019-02-11T05:48:37.373Z,3.70
2019-02-11T05:51:19.669Z,3.70
2019-02-11T05:54:01.854Z,3.70
2019-02-11T05:56:43.863Z,3.80
2019-02-11T05:59:26.431Z,3.80
2019-02-11T06:02:08.670Z,3.70
2019-02-11T06:04:50.705Z,3.80
2019-02-11T06:07:33.167Z,3.70
2019-02-11T06:10:15.597Z,3.70
2019-02-11T06:12:57.865Z,3.70
2019-02-11T06:15:40.166Z,3.60
2019-02-11T06:18:22.274Z,3.60
2019-02-11T06:21:04.759Z,3.60
2019-02-11T06:23:46.770Z,3.60
2019-02-11T06:26:29.114Z,3.60
2019-02-11T06:29:11.590Z,3.60
2019-02-11T06:31:54.121Z,3.60
2019-02-11T06:34:36.262Z,3.60
2019-02-11T06:37:18.759Z,3.60
2019-02-11T06:40:00.623Z,3.70
2019-02-11T06:42:42.650Z,3.60
2019-02-11T06:45:24.565Z,3.60
2019-02-11T06:48:06.674Z,3.60
2019-02-11T06:50:48.613Z,3.50
2019-02-11T06:53:31.280Z,3.50
2019-02-11T06:56:13.691Z,3.50
2019-02-11T06:58:56.177Z,3.50
2019-02-11T07:01:38.298Z,3.50
2019-02-11T07:04:20.667Z,3.50
2019-02-11T07:07:02.944Z,3.50
2019-02-11T07:09:44.990Z,3.50
2019-02-11T07:12:26.991Z,3.50
2019-02-11T07:15:09.185Z,3.50
2019-02-11T07:17:51.610Z,3.50
2019-02-11T07:20:34.212Z,3.50
2019-02-11T07:23:16.927Z,3.50
2019-02-11T07:25:59.258Z,3.50
2019-02-11T07:28:41.390Z,3.50
2019-02-11T07:31:23.467Z,3.50
2019-02-11T07:34:05.715Z,3.50
2019-02-11T07:36:47.711Z,3.50
2019-02-11T07:39:29.831Z,3.50
2019-02-11T07:42:33.993Z,3.50
2019-02-11T07:45:29.668Z,3.60
2019-02-11T07:48:25.100Z,3.60
2019-02-11T07:51:07.249Z,3.60
2019-02-11T07:53:49.250Z,3.60
2019-02-11T07:56:32.012Z,3.70
2019-02-11T07:59:14.512Z,3.60
2019-02-11T08:01:56.719Z,3.70
2019-02-11T08:04:40.693Z,3.70
2019-02-11T08:07:23.289Z,3.80
2019-02-11T08:10:05.531Z,3.70
2019-02-11T08:12:47.427Z,3.70
2019-02-11T08:15:38.070Z,3.70
2019-02-11T08:18:14.186Z,3.60
2019-02-11T08:20:55.957Z,3.60
2019-02-11T08:23:38.631Z,3.60
2019-02-11T08:26:20.495Z,3.70
2019-02-11T08:29:02.884Z,3.70
2019-02-11T08:31:44.990Z,3.70
2019-02-11T08:34:27.119Z,3.80
2019-02-11T08:37:09.940Z,3.80
2019-02-11T08:39:52.420Z,3.80
2019-02-11T08:42:35.016Z,3.80
2019-02-11T08:45:17.096Z,3.80
2019-02-11T08:47:59.586Z,3.90
2019-02-11T08:50:42.210Z,3.90
2019-02-11T08:53:24.401Z,3.90
2019-02-11T08:56:06.690Z,3.90
2019-02-11T08:58:48.808Z,3.90
2019-02-11T09:01:30.734Z,3.90
2019-02-11T09:04:18.820Z,4.00
2019-02-11T09:06:57.514Z,4.00
2019-02-11T09:09:39.722Z,4.00
2019-02-11T09:12:21.806Z,4.00
2019-02-11T09:15:04.144Z,4.10
2019-02-11T09:17:46.969Z,4.10
2019-02-11T09:20:29.355Z,4.10
2019-02-11T09:23:11.565Z,4.00
2019-02-11T09:25:53.726Z,4.00
2019-02-11T09:28:35.787Z,3.90
2019-02-11T09:31:18.388Z,3.90
2019-02-11T09:34:00.557Z,3.90
2019-02-11T09:36:42.823Z,3.90
2019-02-11T09:39:24.843Z,4.00
2019-02-11T09:42:06.622Z,4.00
2019-02-11T09:44:48.696Z,3.90
2019-02-11T09:47:30.611Z,3.90
2019-02-11T09:50:12.414Z,3.90
2019-02-11T09:52:54.824Z,4.00
2019-02-11T09:55:37.101Z,3.90
2019-02-11T09:58:19.573Z,4.00
2019-02-11T10:01:00.491Z,4.10
2019-02-11T10:03:50.246Z,4.10
2019-02-11T10:10:00.099Z,4.10
2019-02-11T10:13:10.747Z,4.10
2019-02-11T10:19:14.907Z,4.20
2019-02-11T10:22:04.660Z,4.20
2019-02-11T10:24:46.694Z,4.20
2019-02-11T10:27:29.047Z,4.20
2019-02-11T10:30:11.067Z,4.30
2019-02-11T10:32:52.983Z,4.30
2019-02-11T10:35:42.033Z,4.30
2019-02-11T10:38:18.848Z,4.30
2019-02-11T10:41:01.346Z,4.30
2019-02-11T10:43:43.889Z,4.40
2019-02-11T10:46:25.958Z,4.40
2019-02-11T10:49:08.412Z,4.40
2019-02-11T10:51:50.247Z,4.40
2019-02-11T10:54:32.233Z,4.40
2019-02-11T10:57:14.117Z,4.40
2019-02-11T10:59:56.263Z,4.40
2019-02-11T11:02:38.570Z,4.40
2019-02-11T11:05:21.363Z,4.50
2019-02-11T11:08:03.599Z,4.50
2019-02-11T11:10:46.002Z,4.50
2019-02-11T11:13:28.331Z,4.50
2019-02-11T11:16:10.691Z,4.50
2019-02-11T11:18:52.842Z,4.50
2019-02-11T11:21:35.204Z,4.50
2019-02-11T11:24:17.856Z,4.50
2019-02-11T11:26:59.756Z,4.60
2019-02-11T11:29:42.426Z,4.70
2019-02-11T11:32:24.954Z,4.70
2019-02-11T11:35:07.433Z,4.70
2019-02-11T11:37:49.711Z,4.70
2019-02-11T11:40:31.903Z,4.70
2019-02-11T11:43:13.924Z,4.70
2019-02-11T11:45:56.803Z,4.80
2019-02-11T11:48:39.071Z,4.70
2019-02-11T11:51:22.041Z,4.70
2019-02-11T11:54:04.754Z,4.70
2019-02-11T11:56:47.300Z,4.70
2019-02-11T11:59:29.891Z,4.70
2019-02-11T12:02:15.634Z,4.70
2019-02-11T12:04:55.400Z,4.70
2019-02-11T12:07:37.186Z,4.70
2019-02-11T12:10:19.350Z,4.70
2019-02-11T12:13:20.689Z,4.70
2019-02-11T12:15:46.171Z,4.70
2019-02-11T12:18:28.143Z,4.70
2019-02-11T12:21:10.098Z,4.70
2019-02-11T12:23:52.175Z,4.70
2019-02-11T12:26:34.403Z,4.70
2019-02-11T12:29:17.039Z,4.70
2019-02-11T12:31:59.356Z,4.70
2019-02-11T12:34:41.233Z,4.80
2019-02-11T12:37:23.204Z,4.80
2019-02-11T12:40:05.607Z,4.80
2019-02-11T12:42:48.149Z,4.80
2019-02-11T12:45:30.651Z,4.80
2019-02-11T12:48:13.225Z,4.80
2019-02-11T12:50:55.185Z,4.80
2019-02-11T12:53:37.786Z,4.80
2019-02-11T12:56:20.029Z,4.80
2019-02-11T12:59:02.039Z,4.80
2019-02-11T13:01:44.375Z,4.90
2019-02-11T13:04:26.481Z,4.90
2019-02-11T13:07:08.207Z,4.90
2019-02-11T13:09:50.791Z,4.90
2019-02-11T13:12:33.213Z,4.90
2019-02-11T13:15:41.726Z,4.90
2019-02-11T13:17:59.552Z,4.80
2019-02-11T13:20:41.632Z,4.80
2019-02-11T13:23:23.749Z,4.80
2019-02-11T13:26:06.313Z,4.70
2019-02-11T13:28:48.184Z,4.80
2019-02-11T13:31:30.414Z,4.80
2019-02-11T13:34:13.051Z,4.80
2019-02-11T13:36:55.314Z,4.90
2019-02-11T13:39:37.306Z,4.90
2019-02-11T13:42:19.730Z,5.00
2019-02-11T13:45:02.217Z,5.00
2019-02-11T13:47:54.047Z,5.00
2019-02-11T13:50:28.852Z,4.90
2019-02-11T13:53:11.341Z,5.00
2019-02-11T13:55:53.611Z,5.00
2019-02-11T13:58:36.263Z,5.00
2019-02-11T14:01:18.830Z,4.90
2019-02-11T14:04:00.996Z,4.90
2019-02-11T14:06:43.083Z,5.00
2019-02-11T14:09:25.280Z,4.90
2019-02-11T14:12:07.098Z,5.00
2019-02-11T14:14:49.311Z,5.00
2019-02-11T14:17:31.545Z,5.00
2019-02-11T14:20:13.793Z,5.00
2019-02-11T14:22:56.041Z,5.00
2019-02-11T14:25:44.271Z,5.00
2019-02-11T14:28:23.459Z,5.10
2019-02-11T14:31:05.425Z,5.10
2019-02-11T14:33:47.565Z,5.10
2019-02-11T14:36:29.410Z,5.10
2019-02-11T14:39:11.186Z,5.10
2019-02-11T14:41:53.631Z,5.10
2019-02-11T14:44:35.522Z,5.10
2019-02-11T14:47:17.758Z,5.10
2019-02-11T14:50:00.486Z,5.10
2019-02-11T14:52:42.625Z,5.00
2019-02-11T14:55:24.974Z,5.10
2019-02-11T14:58:07.496Z,5.00
2019-02-11T15:00:49.715Z,5.00
2019-02-11T15:03:32.317Z,5.00
2019-02-11T15:06:14.817Z,5.00
2019-02-11T15:08:56.601Z,5.00
2019-02-11T15:11:39.260Z,5.00
2019-02-11T15:14:21.643Z,5.00
2019-02-11T15:17:03.974Z,5.00
2019-02-11T15:19:46.506Z,5.00
2019-02-11T15:22:28.806Z,4.90
2019-02-11T15:25:10.719Z,4.90
2019-02-11T15:27:52.895Z,4.80
2019-02-11T15:30:35.325Z,4.80
2019-02-11T15:33:17.876Z,4.80
2019-02-11T15:36:00.111Z,4.80
2019-02-11T15:38:42.629Z,4.80
2019-02-11T15:41:24.863Z,4.80
2019-02-11T15:44:07.181Z,4.70
2019-02-11T15:46:49.375Z,4.70
2019-02-11T15:49:31.869Z,4.70
2019-02-11T15:52:14.450Z,4.80
2019-02-11T15:54:56.475Z,4.80
2019-02-11T15:57:39.785Z,4.80
2019-02-11T16:00:22.045Z,4.80
2019-02-11T16:03:04.485Z,4.70
2019-02-11T16:05:49.640Z,4.60
2019-02-11T16:08:30.601Z,4.60
2019-02-11T16:11:12.499Z,4.60
2019-02-11T16:13:54.824Z,4.50
2019-02-11T16:16:37.164Z,4.60
2019-02-11T16:19:19.891Z,4.60
2019-02-11T16:22:02.755Z,4.60
2019-02-11T16:24:45.929Z,4.60
2019-02-11T16:27:28.708Z,4.60
2019-02-11T16:30:11.723Z,4.60
2019-02-11T16:32:53.999Z,4.60
2019-02-11T16:35:36.606Z,4.60
2019-02-11T16:38:19.026Z,4.60
2019-02-11T16:41:02.045Z,4.60
2019-02-11T16:43:44.626Z,4.60
2019-02-11T16:46:27.029Z,4.60
2019-02-11T16:49:09.412Z,4.60
2019-02-11T16:51:51.810Z,4.60
2019-02-11T16:54:34.321Z,4.60
2019-02-11T16:57:16.139Z,4.60
2019-02-11T16:59:58.591Z,4.60
2019-02-11T17:02:41.277Z,4.60
2019-02-11T17:05:24.278Z,4.60
2019-02-11T17:08:06.617Z,4.60
2019-02-11T17:10:49.055Z,4.60
2019-02-11T17:13:31.407Z,4.60
2019-02-11T17:16:14.093Z,4.60
2019-02-11T17:18:56.650Z,4.60
2019-02-11T17:21:40.100Z,4.60
2019-02-11T17:24:22.934Z,4.60
2019-02-11T17:27:06.285Z,4.60
2019-02-11T17:29:48.706Z,4.60
2019-02-11T17:32:31.335Z,4.60
2019-02-11T17:35:13.482Z,4.70
2019-02-11T17:37:55.199Z,4.70
2019-02-11T17:40:37.616Z,4.70
2019-02-11T17:43:20.559Z,4.70
2019-02-11T17:46:02.697Z,4.70
2019-02-11T17:48:44.601Z,4.70
2019-02-11T17:51:26.826Z,4.70
2019-02-11T17:54:09.707Z,4.80
2019-02-11T17:56:52.193Z,4.80
2019-02-11T17:59:34.397Z,4.80
2019-02-11T18:02:16.435Z,4.80
2019-02-11T18:04:58.630Z,4.80
2019-02-11T18:07:41.176Z,4.80
2019-02-11T18:10:24.099Z,4.80
2019-02-11T18:13:06.367Z,4.80
2019-02-11T18:15:48.563Z,4.80
2019-02-11T18:18:31.071Z,4.80
2019-02-11T18:21:13.490Z,4.80
2019-02-11T18:23:55.613Z,4.80
2019-02-11T18:26:37.941Z,4.80
2019-02-11T18:29:20.391Z,4.80
2019-02-11T18:32:02.604Z,4.90
2019-02-11T18:34:45.112Z,4.90
2019-02-11T18:37:27.685Z,4.90
2019-02-11T18:40:11.846Z,4.90
2019-02-11T18:42:54.027Z,4.90
2019-02-11T18:45:36.359Z,4.90
2019-02-11T18:48:18.619Z,4.90
2019-02-11T18:51:00.555Z,4.90
2019-02-11T18:53:42.963Z,4.90
2019-02-11T18:56:25.919Z,4.90
2019-02-11T18:59:07.675Z,4.90
2019-02-11T19:01:50.190Z,4.90
2019-02-11T19:04:32.898Z,4.90
2019-02-11T19:07:14.715Z,4.90
2019-02-11T19:09:56.669Z,4.90
2019-02-11T19:12:38.978Z,4.80
2019-02-11T19:15:20.833Z,4.80
2019-02-11T19:18:03.471Z,4.80
2019-02-11T19:20:46.066Z,4.80
2019-02-11T19:23:28.215Z,4.70
2019-02-11T19:26:10.805Z,4.70
2019-02-11T19:28:53.542Z,4.70
2019-02-11T19:31:35.864Z,4.70
2019-02-11T19:34:18.397Z,4.70
2019-02-11T19:37:00.841Z,4.70
2019-02-11T19:39:43.073Z,4.70
2019-02-11T19:42:25.791Z,4.70
2019-02-11T19:45:08.034Z,4.70
2019-02-11T19:47:50.082Z,4.60
2019-02-11T19:50:32.370Z,4.60
2019-02-11T19:53:14.487Z,4.60
2019-02-11T19:55:56.823Z,4.60
2019-02-11T19:58:38.844Z,4.60
2019-02-11T20:01:21.230Z,4.60
2019-02-11T20:04:07.475Z,4.60
2019-02-11T20:06:47.510Z,4.60
2019-02-11T20:09:32.909Z,4.60
2019-02-11T20:12:13.886Z,4.60
2019-02-11T20:14:55.646Z,4.60
2019-02-11T20:17:38.029Z,4.50
2019-02-11T20:20:20.673Z,4.50
2019-02-11T20:23:02.913Z,4.50
2019-02-11T20:25:44.886Z,4.50
2019-02-11T20:28:26.897Z,4.40
2019-02-11T20:31:08.908Z,4.50
2019-02-11T20:33:51.047Z,4.50
2019-02-11T20:36:33.627Z,4.50
2019-02-11T20:39:16.103Z,4.50
2019-02-11T20:41:58.762Z,4.50
2019-02-11T20:44:40.770Z,4.50
2019-02-11T20:47:23.441Z,4.50
2019-02-11T20:50:09.387Z,4.50
2019-02-11T20:52:49.557Z,4.50
2019-02-11T20:55:31.449Z,4.40
2019-02-11T20:58:13.669Z,4.40
2019-02-11T21:00:55.704Z,4.40
2019-02-11T21:03:37.468Z,4.40
2019-02-11T21:06:19.660Z,4.40
2019-02-11T21:09:01.758Z,4.40
2019-02-11T21:11:43.663Z,4.40
2019-02-11T21:14:26.071Z,4.40
2019-02-11T21:17:08.353Z,4.50
2019-02-11T21:19:50.670Z,4.50
2019-02-11T21:22:32.745Z,4.50
2019-02-11T21:25:14.671Z,4.50
2019-02-11T21:27:56.829Z,4.50
2019-02-11T21:30:38.807Z,4.50
2019-02-11T21:33:20.999Z,4.50
2019-02-11T21:36:03.393Z,4.40
2019-02-11T21:38:45.438Z,4.40
2019-02-11T21:41:27.725Z,4.50
2019-02-11T21:44:10.061Z,4.50
2019-02-11T21:46:52.283Z,4.50
2019-02-11T21:49:35.098Z,4.60
2019-02-11T21:52:17.698Z,4.60
2019-02-11T21:54:59.621Z,4.60
2019-02-11T21:57:41.471Z,4.60
2019-02-11T22:00:23.563Z,4.60
2019-02-11T22:03:05.987Z,4.60
2019-02-11T22:05:48.410Z,4.60
2019-02-11T22:08:30.717Z,4.60
2019-02-11T22:11:12.603Z,4.60
2019-02-11T22:13:54.554Z,4.60
2019-02-11T22:16:36.713Z,4.60
2019-02-11T22:19:18.825Z,4.60
2019-02-11T22:22:00.820Z,4.60
2019-02-11T22:24:43.082Z,4.50
2019-02-11T22:27:25.232Z,4.50
2019-02-11T22:30:07.198Z,4.50
2019-02-11T22:32:49.394Z,4.50
2019-02-11T22:35:31.546Z,4.50
2019-02-11T22:38:13.643Z,4.50
2019-02-11T22:40:56.083Z,4.50
2019-02-11T22:43:38.294Z,4.40
2019-02-11T22:46:20.543Z,4.30
2019-02-11T22:49:02.916Z,4.30
2019-02-11T22:51:45.106Z,4.30
2019-02-11T22:54:27.213Z,4.30
2019-02-11T22:57:08.967Z,4.20
2019-02-11T22:59:51.250Z,4.20
2019-02-11T23:02:34.038Z,4.10
2019-02-11T23:05:16.276Z,4.10
2019-02-11T23:07:58.678Z,4.10
2019-02-11T23:10:40.686Z,4.10
2019-02-11T23:13:23.273Z,4.10
2019-02-11T23:16:05.792Z,4.10
2019-02-11T23:18:48.083Z,4.00
2019-02-11T23:21:30.483Z,4.10
2019-02-11T23:24:12.963Z,4.00
2019-02-11T23:26:54.859Z,4.10
2019-02-11T23:29:37.503Z,4.10
2019-02-11T23:32:19.575Z,4.20
2019-02-11T23:35:02.278Z,4.20
2019-02-11T23:37:44.245Z,4.20
2019-02-11T23:40:26.189Z,4.10
2019-02-11T23:43:08.677Z,4.00
2019-02-11T23:45:51.089Z,4.00
2019-02-11T23:48:33.308Z,4.00
2019-02-11T23:51:15.272Z,3.90
2019-02-11T23:53:57.503Z,3.90
2019-02-11T23:56:39.630Z,3.90
2019-02-11T23:59:21.725Z,3.90
